createdAt,value
2018-07-15T00:00:26.007Z,8.47
2018-07-15T00:02:54.519Z,7.67
2018-07-15T00:05:22.977Z,8.03
2018-07-15T00:07:51.789Z,8.27
2018-07-15T00:10:20.302Z,8.60
2018-07-15T00:12:48.809Z,9.30
2018-07-15T00:15:17.273Z,9.37
2018-07-15T00:17:45.751Z,9.07
2018-07-15T00:20:14.307Z,9.00
2018-07-15T00:22:43.045Z,9.03
2018-07-15T00:25:11.520Z,9.10
2018-07-15T00:27:40.014Z,9.00
2018-07-15T00:30:08.538Z,8.97
2018-07-15T00:32:37.054Z,9.40
2018-07-15T00:35:05.551Z,9.50
2018-07-15T00:37:34.060Z,9.07
2018-07-15T00:40:02.556Z,8.67
2018-07-15T00:42:31.085Z,9.03
2018-07-15T00:44:59.550Z,9.20
2018-07-15T00:47:28.066Z,9.03
2018-07-15T00:49:56.517Z,8.23
2018-07-15T00:52:25.012Z,8.20
2018-07-15T00:54:53.490Z,8.60
2018-07-15T00:57:21.994Z,8.43
2018-07-15T00:59:50.467Z,9.43
2018-07-15T01:02:18.974Z,9.03
2018-07-15T01:04:47.445Z,8.97
2018-07-15T01:07:15.934Z,8.77
2018-07-15T01:09:44.382Z,9.63
2018-07-15T01:12:12.861Z,8.87
2018-07-15T01:14:41.340Z,9.40
2018-07-15T01:17:09.866Z,9.50
2018-07-15T01:19:38.327Z,9.67
2018-07-15T01:22:06.829Z,8.40
2018-07-15T01:24:35.306Z,9.17
2018-07-15T01:27:03.817Z,9.47
2018-07-15T01:29:32.277Z,10.03
2018-07-15T01:32:00.741Z,9.87
2018-07-15T01:34:29.436Z,10.30
2018-07-15T01:36:57.897Z,10.50
2018-07-15T01:39:26.447Z,9.80
2018-07-15T01:41:54.970Z,9.37
2018-07-15T01:44:23.457Z,9.60
2018-07-15T01:46:51.975Z,9.77
2018-07-15T01:49:20.465Z,9.23
2018-07-15T01:51:48.921Z,9.30
2018-07-15T01:54:19.590Z,9.70
2018-07-15T01:56:48.057Z,10.10
2018-07-15T01:59:16.551Z,11.40
2018-07-15T02:01:45.032Z,10.17
2018-07-15T02:04:13.610Z,10.90
2018-07-15T02:06:42.138Z,9.90
2018-07-15T02:09:10.784Z,10.13
2018-07-15T02:11:39.337Z,9.87
2018-07-15T02:14:07.913Z,9.90
2018-07-15T02:16:36.479Z,10.17
2018-07-15T02:19:05.187Z,10.13
2018-07-15T02:21:33.743Z,9.60
2018-07-15T02:24:02.317Z,9.33
2018-07-15T02:26:30.786Z,9.97
2018-07-15T02:28:59.269Z,10.13
2018-07-15T02:31:27.783Z,10.70
2018-07-15T02:33:56.324Z,9.83
2018-07-15T02:36:24.847Z,10.23
2018-07-15T02:38:53.448Z,10.13
2018-07-15T02:41:21.969Z,9.83
2018-07-15T02:43:50.643Z,10.83
2018-07-15T02:46:19.181Z,11.07
2018-07-15T02:48:47.734Z,12.17
2018-07-15T02:51:16.210Z,12.33
2018-07-15T02:53:44.724Z,11.77
2018-07-15T02:56:13.181Z,10.87
2018-07-15T02:58:41.690Z,11.03
2018-07-15T03:01:10.161Z,10.83
2018-07-15T03:03:38.658Z,10.47
2018-07-15T03:06:07.290Z,10.80
2018-07-15T03:08:35.832Z,10.33
2018-07-15T03:11:04.334Z,10.17
2018-07-15T03:13:32.853Z,10.23
2018-07-15T03:16:01.326Z,10.20
2018-07-15T03:18:29.798Z,12.10
2018-07-15T03:20:58.318Z,13.13
2018-07-15T03:23:26.781Z,12.97
2018-07-15T03:25:55.269Z,12.73
2018-07-15T03:28:23.753Z,11.77
2018-07-15T03:30:52.269Z,11.37
2018-07-15T03:33:21.095Z,10.60
2018-07-15T03:35:49.626Z,10.83
2018-07-15T03:38:18.098Z,11.73
2018-07-15T03:40:46.592Z,11.20
2018-07-15T03:43:15.061Z,11.23
2018-07-15T03:45:43.562Z,11.50
2018-07-15T03:48:12.035Z,11.67
2018-07-15T03:50:40.558Z,12.03
2018-07-15T03:53:09.080Z,11.60
2018-07-15T03:55:37.786Z,10.87
2018-07-15T03:58:06.454Z,11.37
2018-07-15T04:00:35.011Z,11.30
2018-07-15T04:03:03.499Z,11.47
2018-07-15T04:05:32.018Z,11.67
2018-07-15T04:08:00.644Z,11.90
2018-07-15T04:10:29.726Z,11.37
2018-07-15T04:12:58.373Z,11.03
2018-07-15T04:15:26.901Z,10.93
2018-07-15T04:18:03.349Z,11.00
2018-07-15T04:20:32.426Z,10.70
2018-07-15T04:23:01.654Z,10.87
2018-07-15T04:25:30.373Z,9.90
2018-07-15T04:27:58.947Z,10.40
2018-07-15T04:30:27.446Z,9.60
2018-07-15T04:32:55.998Z,9.17
2018-07-15T04:35:24.497Z,8.80
2018-07-15T04:37:53.016Z,9.40
2018-07-15T04:40:21.791Z,9.43
2018-07-15T04:42:50.754Z,9.23
2018-07-15T04:45:20.213Z,9.33
2018-07-15T04:47:49.516Z,8.37
2018-07-15T04:50:18.054Z,8.67
2018-07-15T04:52:46.751Z,8.37
2018-07-15T04:55:15.271Z,9.80
2018-07-15T04:57:43.775Z,9.53
2018-07-15T05:00:12.314Z,8.83
2018-07-15T05:02:40.798Z,8.63
2018-07-15T05:05:09.350Z,8.70
2018-07-15T05:07:37.830Z,9.70
2018-07-15T05:10:06.515Z,8.70
2018-07-15T05:12:35.011Z,8.90
2018-07-15T05:15:03.562Z,8.87
2018-07-15T05:17:32.084Z,10.13
2018-07-15T05:20:00.570Z,8.80
2018-07-15T05:22:29.075Z,8.17
2018-07-15T05:24:57.567Z,8.20
2018-07-15T05:27:26.081Z,9.03
2018-07-15T05:29:54.581Z,8.63
2018-07-15T05:32:23.082Z,7.87
2018-07-15T05:34:51.560Z,7.87
2018-07-15T05:37:20.097Z,8.30
2018-07-15T05:39:48.562Z,8.40
2018-07-15T05:42:17.085Z,7.87
2018-07-15T05:44:45.561Z,8.63
2018-07-15T05:47:14.078Z,8.47
2018-07-15T05:49:42.565Z,8.13
2018-07-15T05:52:11.093Z,8.30
2018-07-15T05:54:39.585Z,9.37
2018-07-15T05:57:08.154Z,9.40
2018-07-15T05:59:36.658Z,9.03
2018-07-15T06:02:05.239Z,9.13
2018-07-15T06:04:33.722Z,9.67
2018-07-15T06:07:02.285Z,9.00
2018-07-15T06:09:30.761Z,9.67
2018-07-15T06:11:59.269Z,9.37
2018-07-15T06:14:27.745Z,9.27
2018-07-15T06:16:56.254Z,9.30
2018-07-15T06:19:24.739Z,9.30
2018-07-15T06:21:53.327Z,9.43
2018-07-15T06:24:21.822Z,9.27
2018-07-15T06:26:50.347Z,9.27
2018-07-15T06:29:18.838Z,9.50
2018-07-15T06:31:47.501Z,9.70
2018-07-15T06:34:16.152Z,8.63
2018-07-15T06:36:44.667Z,8.97
2018-07-15T06:39:13.266Z,8.00
2018-07-15T06:41:41.826Z,8.40
2018-07-15T06:44:10.308Z,8.87
2018-07-15T06:46:38.820Z,8.43
2018-07-15T06:49:07.375Z,8.00
2018-07-15T06:51:35.854Z,8.00
2018-07-15T06:54:04.460Z,8.00
2018-07-15T06:56:32.912Z,8.07
2018-07-15T06:59:01.458Z,7.77
2018-07-15T07:01:30.333Z,8.10
2018-07-15T07:03:58.810Z,8.00
2018-07-15T07:06:27.429Z,8.70
2018-07-15T07:08:56.095Z,8.13
2018-07-15T07:11:24.683Z,7.90
2018-07-15T07:13:53.354Z,7.93
2018-07-15T07:16:21.935Z,8.40
2018-07-15T07:18:50.514Z,7.37
2018-07-15T07:21:19.130Z,7.50
2018-07-15T07:23:47.653Z,8.03
2018-07-15T07:26:16.379Z,7.70
2018-07-15T07:28:44.950Z,7.93
2018-07-15T07:31:13.443Z,7.33
2018-07-15T07:33:42.131Z,7.43
2018-07-15T07:36:10.734Z,7.50
2018-07-15T07:38:39.395Z,7.67
2018-07-15T07:41:07.988Z,6.87
2018-07-15T07:43:44.229Z,6.97
2018-07-15T07:46:12.710Z,7.47
2018-07-15T07:48:41.231Z,7.20
2018-07-15T07:51:09.843Z,6.87
2018-07-15T07:53:38.624Z,6.47
2018-07-15T07:56:14.174Z,6.40
2018-07-15T07:58:42.845Z,6.67
2018-07-15T08:01:11.377Z,6.87
2018-07-15T08:03:39.953Z,7.40
2018-07-15T08:06:08.491Z,5.30
2018-07-15T08:08:37.134Z,5.58
2018-07-15T08:11:05.658Z,5.03
2018-07-15T08:13:34.811Z,6.20
2018-07-15T08:16:03.315Z,4.70
2018-07-15T08:18:31.831Z,4.83
2018-07-15T08:21:00.466Z,5.28
2018-07-15T08:23:29.781Z,4.70
2018-07-15T08:25:58.254Z,4.85
2018-07-15T08:28:26.894Z,4.58
2018-07-15T08:31:09.570Z,4.60
2018-07-15T08:33:39.371Z,4.53
2018-07-15T08:36:08.285Z,4.40
2018-07-15T08:38:36.806Z,4.40
2018-07-15T08:41:05.342Z,4.65
2018-07-15T08:43:34.752Z,4.25
2018-07-15T08:46:03.410Z,4.30
2018-07-15T08:48:32.036Z,4.20
2018-07-15T08:51:00.560Z,3.95
2018-07-15T08:53:29.311Z,4.47
2018-07-15T08:55:57.997Z,4.60
2018-07-15T08:58:26.832Z,4.70
2018-07-15T09:00:56.682Z,4.62
2018-07-15T09:03:25.468Z,4.10
2018-07-15T09:05:54.105Z,4.50
2018-07-15T09:08:22.828Z,4.20
2018-07-15T09:10:52.499Z,4.30
2018-07-15T09:13:21.269Z,3.80
2018-07-15T09:15:49.869Z,3.98
2018-07-15T09:18:18.802Z,3.90
2018-07-15T09:20:47.550Z,4.15
2018-07-15T09:23:16.038Z,4.45
2018-07-15T09:25:44.764Z,4.58
2018-07-15T09:28:13.376Z,4.08
2018-07-15T09:30:41.947Z,5.00
2018-07-15T09:33:15.819Z,4.10
2018-07-15T09:35:44.402Z,3.85
2018-07-15T09:38:12.950Z,3.87
2018-07-15T09:40:42.841Z,4.05
2018-07-15T09:43:11.344Z,4.10
2018-07-15T09:45:39.849Z,4.10
2018-07-15T09:48:08.362Z,3.60
2018-07-15T09:50:36.977Z,3.90
2018-07-15T09:53:05.486Z,3.65
2018-07-15T09:55:34.076Z,3.67
2018-07-15T09:58:02.541Z,3.70
2018-07-15T10:00:36.387Z,3.52
2018-07-15T10:03:04.938Z,3.60
2018-07-15T10:05:35.031Z,3.65
2018-07-15T10:08:03.560Z,3.50
2018-07-15T10:10:32.113Z,3.80
2018-07-15T10:13:00.945Z,4.00
2018-07-15T10:15:29.480Z,4.08
2018-07-15T10:17:58.012Z,4.60
2018-07-15T10:20:26.557Z,3.65
2018-07-15T10:22:55.964Z,4.12
2018-07-15T10:25:24.505Z,4.10
2018-07-15T10:27:52.977Z,3.98
2018-07-15T10:30:21.931Z,3.90
2018-07-15T10:32:50.430Z,3.92
2018-07-15T10:35:18.945Z,4.05
2018-07-15T10:37:47.527Z,3.87
2018-07-15T10:40:17.007Z,3.75
2018-07-15T10:42:45.516Z,4.00
2018-07-15T10:45:14.139Z,4.10
2018-07-15T10:47:43.137Z,3.98
2018-07-15T10:50:13.391Z,3.90
2018-07-15T10:52:41.938Z,4.20
2018-07-15T10:55:10.435Z,3.70
2018-07-15T10:57:38.984Z,3.83
2018-07-15T11:00:07.553Z,3.83
2018-07-15T11:02:36.570Z,4.47
2018-07-15T11:05:05.705Z,4.00
2018-07-15T11:07:34.241Z,3.70
2018-07-15T11:10:02.778Z,3.90
2018-07-15T11:12:31.323Z,3.72
2018-07-15T11:15:00.047Z,3.80
2018-07-15T11:17:28.616Z,3.67
2018-07-15T11:19:57.138Z,3.50
2018-07-15T11:22:25.735Z,3.58
2018-07-15T11:24:54.190Z,3.42
2018-07-15T11:27:22.728Z,3.42
2018-07-15T11:29:51.271Z,3.47
2018-07-15T11:32:19.830Z,3.30
2018-07-15T11:34:48.349Z,3.30
2018-07-15T11:37:16.885Z,3.10
2018-07-15T11:39:45.573Z,3.10
2018-07-15T11:42:14.931Z,2.80
2018-07-15T11:44:43.697Z,3.65
2018-07-15T11:47:12.676Z,3.25
2018-07-15T11:49:41.267Z,3.40
2018-07-15T11:52:09.973Z,3.20
2018-07-15T11:54:41.782Z,2.80
2018-07-15T11:57:10.310Z,2.85
2018-07-15T11:59:38.794Z,3.22
2018-07-15T12:02:07.353Z,3.00
2018-07-15T12:04:35.841Z,2.80
2018-07-15T12:07:04.386Z,3.10
2018-07-15T12:09:32.881Z,3.00
2018-07-15T12:12:01.417Z,3.27
2018-07-15T12:14:29.882Z,3.12
2018-07-15T12:16:58.371Z,3.30
2018-07-15T12:19:26.957Z,3.98
2018-07-15T12:21:55.588Z,3.37
2018-07-15T12:24:24.146Z,3.55
2018-07-15T12:26:52.642Z,3.62
2018-07-15T12:29:21.154Z,3.30
2018-07-15T12:31:49.662Z,3.02
2018-07-15T12:34:18.181Z,2.77
2018-07-15T12:36:46.670Z,3.02
2018-07-15T12:39:15.368Z,2.70
2018-07-15T12:41:43.885Z,2.77
2018-07-15T12:44:12.441Z,2.37
2018-07-15T12:46:40.994Z,2.35
2018-07-15T12:49:09.608Z,2.30
2018-07-15T12:51:38.163Z,2.30
2018-07-15T12:54:07.148Z,2.10
2018-07-15T12:56:35.751Z,2.20
2018-07-15T12:59:04.339Z,2.87
2018-07-15T13:01:32.851Z,2.83
2018-07-15T13:04:01.746Z,2.90
2018-07-15T13:06:30.421Z,2.80
2018-07-15T13:08:58.963Z,2.87
2018-07-15T13:11:27.611Z,2.90
2018-07-15T13:13:56.187Z,3.00
2018-07-15T13:16:25.465Z,4.33
2018-07-15T13:18:53.931Z,4.70
2018-07-15T13:21:22.458Z,6.20
2018-07-15T13:23:51.143Z,6.47
2018-07-15T13:26:19.753Z,6.57
2018-07-15T13:28:48.379Z,6.53
2018-07-15T13:31:16.902Z,5.93
2018-07-15T13:33:45.476Z,5.37
2018-07-15T13:36:14.239Z,5.30
2018-07-15T13:38:42.807Z,5.20
2018-07-15T13:41:11.338Z,5.37
2018-07-15T13:43:39.834Z,6.00
2018-07-15T13:46:08.358Z,5.43
2018-07-15T13:48:36.889Z,5.80
2018-07-15T13:51:05.538Z,5.07
2018-07-15T13:53:33.982Z,4.37
2018-07-15T13:56:02.536Z,3.90
2018-07-15T13:58:31.002Z,3.80
2018-07-15T14:00:59.602Z,4.00
2018-07-15T14:03:28.087Z,3.90
2018-07-15T14:05:56.628Z,4.10
2018-07-15T14:08:25.114Z,3.97
2018-07-15T14:10:53.614Z,3.80
2018-07-15T14:13:22.097Z,4.20
2018-07-15T14:15:50.605Z,4.40
2018-07-15T14:18:19.093Z,4.27
2018-07-15T14:20:47.670Z,4.60
2018-07-15T14:23:16.878Z,4.40
2018-07-15T14:25:45.372Z,4.50
2018-07-15T14:28:13.917Z,4.60
2018-07-15T14:30:42.414Z,5.17
2018-07-15T14:33:10.878Z,6.20
2018-07-15T14:35:39.374Z,5.73
2018-07-15T14:38:07.894Z,6.03
2018-07-15T14:40:36.394Z,6.07
2018-07-15T14:43:04.917Z,6.53
2018-07-15T14:45:34.370Z,6.40
2018-07-15T14:48:03.706Z,5.83
2018-07-15T14:50:32.222Z,6.00
2018-07-15T14:53:00.697Z,6.40
2018-07-15T14:55:29.162Z,5.73
2018-07-15T14:57:57.645Z,5.23
2018-07-15T15:00:26.178Z,5.23
2018-07-15T15:02:54.650Z,5.30
2018-07-15T15:05:23.091Z,5.20
2018-07-15T15:07:51.945Z,5.20
2018-07-15T15:10:20.458Z,6.20
2018-07-15T15:12:48.951Z,6.33
2018-07-15T15:15:17.401Z,6.67
2018-07-15T15:17:45.893Z,5.63
2018-07-15T15:20:14.386Z,6.50
2018-07-15T15:22:42.991Z,6.23
2018-07-15T15:25:11.502Z,6.70
2018-07-15T15:27:40.037Z,6.17
2018-07-15T15:30:09.152Z,6.73
2018-07-15T15:32:37.690Z,6.20
2018-07-15T15:35:06.287Z,6.23
2018-07-15T15:37:35.617Z,6.70
2018-07-15T15:40:04.439Z,6.50
2018-07-15T15:42:33.012Z,5.83
2018-07-15T15:45:01.452Z,5.90
2018-07-15T15:47:29.947Z,5.93
2018-07-15T15:49:58.441Z,5.57
2018-07-15T15:52:26.933Z,5.63
2018-07-15T15:54:55.394Z,5.17
2018-07-15T15:57:23.901Z,5.63
2018-07-15T15:59:52.375Z,5.47
2018-07-15T16:02:20.902Z,5.00
2018-07-15T16:04:49.349Z,5.43
2018-07-15T16:07:17.814Z,5.27
2018-07-15T16:09:46.284Z,5.10
2018-07-15T16:12:14.953Z,4.50
2018-07-15T16:14:43.984Z,5.17
2018-07-15T16:17:12.496Z,4.80
2018-07-15T16:19:41.022Z,5.10
2018-07-15T16:22:09.554Z,5.10
2018-07-15T16:24:38.057Z,4.70
2018-07-15T16:27:06.679Z,4.30
2018-07-15T16:29:35.142Z,4.20
2018-07-15T16:32:04.372Z,4.40
2018-07-15T16:34:32.902Z,3.87
2018-07-15T16:37:01.442Z,4.10
2018-07-15T16:39:29.930Z,4.10
2018-07-15T16:41:58.447Z,4.03
2018-07-15T16:44:26.950Z,3.53
2018-07-15T16:46:55.510Z,3.60
2018-07-15T16:49:23.978Z,4.00
2018-07-15T16:51:52.494Z,3.67
2018-07-15T16:54:20.974Z,3.87
2018-07-15T16:56:49.480Z,3.47
2018-07-15T16:59:18.081Z,3.90
2018-07-15T17:01:46.913Z,3.80
2018-07-15T17:04:15.437Z,3.47
2018-07-15T17:06:43.929Z,3.80
2018-07-15T17:09:12.453Z,4.20
2018-07-15T17:11:41.068Z,4.03
2018-07-15T17:14:09.599Z,4.10
2018-07-15T17:16:41.533Z,4.17
2018-07-15T17:19:10.039Z,4.40
2018-07-15T17:21:43.709Z,4.33
2018-07-15T17:24:12.966Z,4.53
2018-07-15T17:26:42.413Z,4.57
2018-07-15T17:29:11.200Z,4.90
2018-07-15T17:31:39.727Z,4.60
2018-07-15T17:34:08.298Z,4.83
2018-07-15T17:36:37.005Z,4.23
2018-07-15T17:39:06.599Z,3.77
2018-07-15T17:41:35.339Z,4.00
2018-07-15T17:44:04.782Z,3.97
2018-07-15T17:46:33.276Z,3.80
2018-07-15T17:49:01.785Z,3.73
2018-07-15T17:51:31.437Z,3.50
2018-07-15T17:53:59.989Z,3.90
2018-07-15T17:56:28.497Z,3.53
2018-07-15T17:58:57.073Z,4.00
2018-07-15T18:01:25.591Z,3.63
2018-07-15T18:03:54.296Z,3.43
2018-07-15T18:06:23.469Z,3.60
2018-07-15T18:08:51.993Z,4.00
2018-07-15T18:11:20.530Z,3.90
2018-07-15T18:13:49.111Z,4.20
2018-07-15T18:16:18.030Z,3.90
2018-07-15T18:18:47.486Z,4.10
2018-07-15T18:21:16.122Z,4.07
2018-07-15T18:23:45.780Z,4.33
2018-07-15T18:26:14.799Z,4.50
2018-07-15T18:28:43.886Z,4.73
2018-07-15T18:31:12.623Z,5.03
2018-07-15T18:33:41.281Z,4.57
2018-07-15T18:36:10.655Z,4.83
2018-07-15T18:38:40.979Z,4.77
2018-07-15T18:41:09.527Z,4.70
2018-07-15T18:43:38.075Z,4.93
2018-07-15T18:46:06.666Z,5.03
2018-07-15T18:48:35.367Z,5.40
2018-07-15T18:51:04.141Z,5.03
2018-07-15T18:53:33.597Z,4.80
2018-07-15T18:56:02.064Z,4.70
2018-07-15T18:58:31.828Z,4.73
2018-07-15T19:01:00.346Z,5.43
2018-07-15T19:03:28.886Z,5.33
2018-07-15T19:05:58.007Z,5.53
2018-07-15T19:08:26.559Z,5.40
2018-07-15T19:10:55.136Z,5.57
2018-07-15T19:13:23.646Z,5.40
2018-07-15T19:15:52.139Z,5.50
2018-07-15T19:18:20.863Z,5.77
2018-07-15T19:20:49.381Z,6.40
2018-07-15T19:23:17.906Z,6.00
2018-07-15T19:25:46.566Z,6.37
2018-07-15T19:28:15.591Z,8.87
2018-07-15T19:30:44.254Z,8.60
2018-07-15T19:33:12.983Z,8.17
2018-07-15T19:35:43.437Z,8.27
2018-07-15T19:38:11.953Z,8.33
2018-07-15T19:40:40.490Z,8.27
2018-07-15T19:43:09.000Z,8.77
2018-07-15T19:45:37.674Z,8.60
2018-07-15T19:48:06.214Z,8.40
2018-07-15T19:50:34.822Z,8.77
2018-07-15T19:53:03.469Z,8.57
2018-07-15T19:55:32.183Z,8.83
2018-07-15T19:58:00.739Z,8.77
2018-07-15T20:00:29.320Z,8.30
2018-07-15T20:02:58.868Z,9.03
2018-07-15T20:05:27.438Z,9.93
2018-07-15T20:07:56.006Z,9.37
2018-07-15T20:10:24.825Z,9.30
2018-07-15T20:12:53.434Z,8.33
2018-07-15T20:15:22.012Z,10.20
2018-07-15T20:17:50.600Z,8.87
2018-07-15T20:20:19.150Z,9.30
2018-07-15T20:22:47.671Z,8.70
2018-07-15T20:25:16.371Z,8.57
2018-07-15T20:27:44.947Z,9.33
2018-07-15T20:30:13.581Z,9.83
2018-07-15T20:32:42.177Z,9.67
2018-07-15T20:35:10.882Z,9.53
2018-07-15T20:37:39.455Z,9.77
2018-07-15T20:40:08.168Z,9.03
2018-07-15T20:42:36.682Z,8.20
2018-07-15T20:45:05.298Z,8.97
2018-07-15T20:47:33.875Z,8.27
2018-07-15T20:50:02.474Z,8.30
2018-07-15T20:52:31.043Z,7.80
2018-07-15T20:54:59.757Z,8.57
2018-07-15T20:57:28.306Z,8.70
2018-07-15T20:59:56.967Z,8.83
2018-07-15T21:02:25.672Z,8.40
2018-07-15T21:04:54.566Z,8.70
2018-07-15T21:07:23.162Z,9.47
2018-07-15T21:12:50.022Z,8.33
2018-07-15T21:15:18.992Z,9.90
2018-07-15T21:17:49.348Z,10.70
2018-07-15T21:20:18.176Z,11.13
2018-07-15T21:22:47.829Z,11.57
2018-07-15T21:25:18.355Z,11.40
2018-07-15T21:27:47.563Z,13.07
2018-07-15T21:30:16.136Z,12.70
2018-07-15T21:32:44.730Z,11.07
2018-07-15T21:35:13.256Z,11.23
2018-07-15T21:37:41.861Z,12.10
2018-07-15T21:40:13.235Z,11.60
2018-07-15T21:42:45.165Z,11.33
2018-07-15T21:45:13.696Z,11.00
2018-07-15T21:47:42.290Z,10.73
2018-07-15T21:50:11.099Z,9.57
2018-07-15T21:52:39.555Z,9.43
2018-07-15T21:55:08.105Z,9.43
2018-07-15T21:57:37.298Z,10.07
2018-07-15T22:00:07.341Z,9.13
2018-07-15T22:02:37.089Z,9.27
2018-07-15T22:05:06.647Z,8.40
2018-07-15T22:07:47.565Z,10.60
2018-07-15T22:10:51.146Z,10.50
2018-07-15T22:13:20.505Z,11.07
2018-07-15T22:15:49.055Z,9.77
2018-07-15T22:18:17.605Z,12.70
2018-07-15T22:20:46.173Z,11.47
2018-07-15T22:23:14.793Z,11.07
2018-07-15T22:25:48.152Z,9.50
2018-07-15T22:28:19.113Z,9.00
2018-07-15T22:30:47.734Z,9.77
2018-07-15T22:33:16.273Z,9.57
2018-07-15T22:35:44.922Z,10.00
2018-07-15T22:38:13.430Z,10.10
2018-07-15T22:40:42.902Z,10.53
2018-07-15T22:43:14.445Z,11.40
2018-07-15T22:45:43.030Z,10.90
2018-07-15T22:48:11.677Z,11.47
2018-07-15T22:50:42.934Z,11.00
2018-07-15T22:53:13.626Z,11.87
2018-07-15T22:55:44.267Z,10.37
2018-07-15T22:58:12.845Z,10.47
2018-07-15T23:00:42.511Z,10.83
2018-07-15T23:03:13.738Z,10.77
2018-07-15T23:05:59.889Z,10.67
2018-07-15T23:08:30.860Z,10.57
2018-07-15T23:10:59.438Z,10.67
2018-07-15T23:13:28.644Z,10.70
2018-07-15T23:15:57.190Z,10.47
2018-07-15T23:18:25.755Z,10.43
2018-07-15T23:20:54.282Z,12.03
2018-07-15T23:23:23.551Z,13.10
2018-07-15T23:25:52.129Z,13.43
2018-07-15T23:28:21.027Z,14.40
2018-07-15T23:30:49.578Z,13.20
2018-07-15T23:33:19.374Z,13.30
2018-07-15T23:35:47.881Z,11.87
2018-07-15T23:38:16.457Z,11.53
2018-07-15T23:40:44.978Z,11.50
2018-07-15T23:43:13.509Z,11.90
